createdAt,value
2018-06-14T00:00:34.329Z,6.30
2018-06-14T00:03:02.711Z,6.40
2018-06-14T00:05:31.047Z,6.60
2018-06-14T00:07:59.547Z,6.27
2018-06-14T00:10:27.904Z,6.40
2018-06-14T00:12:56.306Z,6.60
2018-06-14T00:15:24.651Z,6.40
2018-06-14T00:17:52.961Z,6.70
2018-06-14T00:20:21.238Z,6.83
2018-06-14T00:22:49.535Z,6.83
2018-06-14T00:25:17.808Z,7.20
2018-06-14T00:27:46.135Z,7.20
2018-06-14T00:30:14.430Z,6.60
2018-06-14T00:32:42.798Z,6.37
2018-06-14T00:35:11.109Z,6.17
2018-06-14T00:37:39.443Z,6.47
2018-06-14T00:40:07.853Z,6.53
2018-06-14T00:42:36.054Z,6.53
2018-06-14T00:45:04.406Z,7.10
2018-06-14T00:47:32.699Z,6.50
2018-06-14T00:50:01.073Z,6.33
2018-06-14T00:52:29.644Z,6.40
2018-06-14T00:54:57.965Z,5.70
2018-06-14T00:57:29.763Z,6.40
2018-06-14T00:59:58.251Z,6.57
2018-06-14T01:02:27.019Z,6.10
2018-06-14T01:04:55.316Z,6.60
2018-06-14T01:07:23.671Z,7.20
2018-06-14T01:09:52.046Z,6.80
2018-06-14T01:12:20.340Z,6.63
2018-06-14T01:14:48.632Z,7.50
2018-06-14T01:17:16.927Z,7.23
2018-06-14T01:19:45.251Z,6.60
2018-06-14T01:22:13.546Z,6.50
2018-06-14T01:24:41.883Z,6.50
2018-06-14T01:27:11.257Z,6.00
2018-06-14T01:29:39.704Z,6.40
2018-06-14T01:32:08.020Z,5.67
2018-06-14T01:34:36.340Z,6.07
2018-06-14T01:37:04.650Z,6.37
2018-06-14T01:39:32.954Z,6.10
2018-06-14T01:42:01.244Z,5.53
2018-06-14T01:44:29.650Z,5.90
2018-06-14T01:46:58.138Z,5.90
2018-06-14T01:49:26.523Z,6.83
2018-06-14T01:51:54.807Z,5.73
2018-06-14T01:54:23.809Z,5.53
2018-06-14T01:56:52.098Z,5.93
2018-06-14T01:59:20.505Z,5.70
2018-06-14T02:01:48.815Z,5.53
2018-06-14T02:04:17.159Z,6.33
2018-06-14T02:06:45.457Z,5.53
2018-06-14T02:09:13.718Z,6.07
2018-06-14T02:11:42.032Z,6.07
2018-06-14T02:14:10.357Z,6.47
2018-06-14T02:16:39.325Z,6.10
2018-06-14T02:19:07.675Z,6.37
2018-06-14T02:21:36.027Z,5.70
2018-06-14T02:24:04.315Z,5.40
2018-06-14T02:26:32.635Z,5.70
2018-06-14T02:29:00.912Z,6.20
2018-06-14T02:31:29.239Z,5.67
2018-06-14T02:33:57.549Z,5.50
2018-06-14T02:36:25.883Z,5.40
2018-06-14T02:38:54.203Z,5.70
2018-06-14T02:41:22.593Z,5.57
2018-06-14T02:43:50.905Z,5.53
2018-06-14T02:46:19.255Z,5.60
2018-06-14T02:48:47.552Z,5.70
2018-06-14T02:51:15.875Z,5.73
2018-06-14T02:53:43.966Z,5.73
2018-06-14T02:56:12.312Z,6.13
2018-06-14T02:58:40.603Z,6.27
2018-06-14T03:01:08.904Z,5.90
2018-06-14T03:03:37.230Z,6.67
2018-06-14T03:06:05.282Z,6.60
2018-06-14T03:08:33.625Z,7.17
2018-06-14T03:11:01.940Z,6.33
2018-06-14T03:13:30.261Z,7.10
2018-06-14T03:15:58.579Z,6.37
2018-06-14T03:18:26.887Z,7.17
2018-06-14T03:20:55.310Z,6.57
2018-06-14T03:23:23.612Z,6.90
2018-06-14T03:25:51.943Z,6.83
2018-06-14T03:28:20.244Z,7.17
2018-06-14T03:30:48.599Z,6.93
2018-06-14T03:33:17.145Z,7.07
2018-06-14T03:35:45.464Z,7.17
2018-06-14T03:38:13.786Z,6.17
2018-06-14T03:40:42.128Z,6.73
2018-06-14T03:43:10.431Z,6.50
2018-06-14T03:45:38.783Z,6.80
2018-06-14T03:48:07.175Z,6.97
2018-06-14T03:50:35.463Z,6.80
2018-06-14T03:53:03.751Z,6.60
2018-06-14T03:55:32.023Z,7.10
2018-06-14T03:58:00.322Z,6.93
2018-06-14T04:00:28.625Z,7.17
2018-06-14T04:02:56.692Z,7.80
2018-06-14T04:05:25.012Z,7.00
2018-06-14T04:07:53.311Z,7.03
2018-06-14T04:10:21.675Z,7.27
2018-06-14T04:12:50.040Z,7.50
2018-06-14T04:15:18.441Z,7.80
2018-06-14T04:17:51.081Z,7.87
2018-06-14T04:20:19.411Z,7.43
2018-06-14T04:22:47.715Z,7.33
2018-06-14T04:25:15.766Z,7.43
2018-06-14T04:27:44.109Z,7.10
2018-06-14T04:30:12.427Z,7.40
2018-06-14T04:32:40.524Z,7.40
2018-06-14T04:35:08.871Z,7.67
2018-06-14T04:37:37.235Z,6.70
2018-06-14T04:40:05.552Z,7.43
2018-06-14T04:42:33.727Z,7.80
2018-06-14T04:45:01.786Z,7.47
2018-06-14T04:47:29.857Z,7.50
2018-06-14T04:49:57.935Z,7.40
2018-06-14T04:52:26.038Z,7.57
2018-06-14T04:54:54.331Z,7.20
2018-06-14T04:57:22.731Z,7.63
2018-06-14T04:59:51.064Z,7.33
2018-06-14T05:02:19.403Z,7.40
2018-06-14T05:04:47.444Z,7.70
2018-06-14T05:07:15.793Z,7.90
2018-06-14T05:09:44.198Z,7.40
2018-06-14T05:12:12.510Z,7.90
2018-06-14T05:14:40.644Z,7.60
2018-06-14T05:17:09.072Z,7.50
2018-06-14T05:19:37.073Z,7.33
2018-06-14T05:22:05.451Z,6.87
2018-06-14T05:24:33.742Z,7.50
2018-06-14T05:27:02.257Z,7.63
2018-06-14T05:29:30.778Z,8.00
2018-06-14T05:31:59.094Z,7.57
2018-06-14T05:34:27.390Z,7.97
2018-06-14T05:36:55.829Z,8.37
2018-06-14T05:39:24.107Z,8.10
2018-06-14T05:41:52.464Z,8.13
2018-06-14T05:44:20.768Z,8.73
2018-06-14T05:46:49.278Z,7.50
2018-06-14T05:49:17.611Z,7.77
2018-06-14T05:51:46.211Z,7.77
2018-06-14T05:54:14.881Z,7.97
2018-06-14T05:56:43.285Z,8.60
2018-06-14T05:59:11.859Z,8.50
2018-06-14T06:01:40.318Z,8.30
2018-06-14T06:04:08.709Z,7.90
2018-06-14T06:06:37.429Z,8.13
2018-06-14T06:09:08.784Z,8.13
2018-06-14T06:11:37.071Z,7.30
2018-06-14T06:14:05.562Z,7.23
2018-06-14T06:16:33.887Z,7.23
2018-06-14T06:19:02.342Z,8.37
2018-06-14T06:21:30.649Z,8.43
2018-06-14T06:23:59.304Z,8.57
2018-06-14T06:26:28.821Z,7.73
2018-06-14T06:28:57.522Z,8.47
2018-06-14T06:31:26.034Z,7.47
2018-06-14T06:33:54.530Z,7.50
2018-06-14T06:36:23.112Z,7.83
2018-06-14T06:38:51.508Z,8.27
2018-06-14T06:41:20.000Z,7.77
2018-06-14T06:43:48.326Z,8.60
2018-06-14T06:46:16.759Z,8.73
2018-06-14T06:48:45.479Z,8.83
2018-06-14T06:51:13.831Z,8.70
2018-06-14T06:53:43.063Z,9.07
2018-06-14T06:56:11.363Z,8.27
2018-06-14T06:58:39.402Z,8.60
2018-06-14T07:01:07.747Z,8.47
2018-06-14T07:03:36.109Z,7.20
2018-06-14T07:06:04.446Z,7.27
2018-06-14T07:08:32.747Z,6.77
2018-06-14T07:11:01.039Z,6.43
2018-06-14T07:13:29.669Z,7.67
2018-06-14T07:15:57.995Z,6.90
2018-06-14T07:18:32.674Z,6.57
2018-06-14T07:21:00.999Z,6.80
2018-06-14T07:23:30.501Z,7.00
2018-06-14T07:25:58.855Z,7.00
2018-06-14T07:28:27.222Z,6.70
2018-06-14T07:30:55.524Z,7.20
2018-06-14T07:33:23.873Z,7.70
2018-06-14T07:35:52.181Z,7.37
2018-06-14T07:38:20.529Z,7.47
2018-06-14T07:40:48.847Z,8.10
2018-06-14T07:43:16.874Z,7.37
2018-06-14T07:45:45.320Z,8.03
2018-06-14T07:48:13.628Z,7.33
2018-06-14T07:50:41.916Z,8.07
2018-06-14T07:53:10.362Z,7.20
2018-06-14T07:55:38.743Z,6.57
2018-06-14T07:58:07.086Z,7.60
2018-06-14T08:00:35.444Z,6.90
2018-06-14T08:03:03.918Z,7.30
2018-06-14T08:05:32.264Z,7.60
2018-06-14T08:08:00.698Z,7.37
2018-06-14T08:10:29.000Z,6.80
2018-06-14T08:12:57.391Z,6.80
2018-06-14T08:15:25.765Z,6.63
2018-06-14T08:17:54.075Z,6.80
2018-06-14T08:20:22.375Z,6.57
2018-06-14T08:22:50.842Z,6.97
2018-06-14T08:25:19.167Z,6.87
2018-06-14T08:27:47.468Z,6.93
2018-06-14T08:30:16.384Z,7.43
2018-06-14T08:32:44.723Z,8.03
2018-06-14T08:35:13.016Z,6.93
2018-06-14T08:37:41.332Z,6.47
2018-06-14T08:40:09.653Z,6.57
2018-06-14T08:42:37.983Z,6.37
2018-06-14T08:45:06.307Z,6.90
2018-06-14T08:47:34.625Z,6.93
2018-06-14T08:50:02.914Z,6.50
2018-06-14T08:52:31.265Z,5.90
2018-06-14T08:54:59.611Z,6.20
2018-06-14T08:57:28.324Z,5.97
2018-06-14T08:59:56.621Z,6.33
2018-06-14T09:02:24.924Z,6.23
2018-06-14T09:04:53.299Z,6.37
2018-06-14T09:07:21.582Z,7.43
2018-06-14T09:09:50.013Z,6.77
2018-06-14T09:12:18.326Z,6.67
2018-06-14T09:14:46.637Z,6.90
2018-06-14T09:17:15.763Z,6.43
2018-06-14T09:19:44.759Z,6.50
2018-06-14T09:22:13.198Z,6.03
2018-06-14T09:24:41.511Z,6.10
2018-06-14T09:27:09.789Z,5.77
2018-06-14T09:29:38.112Z,5.47
2018-06-14T09:32:06.511Z,5.50
2018-06-14T09:34:34.850Z,5.80
2018-06-14T09:37:03.171Z,5.93
2018-06-14T09:39:31.488Z,5.97
2018-06-14T09:41:59.774Z,6.17
2018-06-14T09:44:28.060Z,5.50
2018-06-14T09:46:56.356Z,5.30
2018-06-14T09:49:24.385Z,5.87
2018-06-14T09:51:52.692Z,5.77
2018-06-14T09:54:20.717Z,6.13
2018-06-14T09:56:49.006Z,6.00
2018-06-14T09:59:17.379Z,6.63
2018-06-14T10:01:45.684Z,5.23
2018-06-14T10:04:14.112Z,6.43
2018-06-14T10:06:42.513Z,5.83
2018-06-14T10:09:12.228Z,8.80
2018-06-14T10:11:40.580Z,7.00
2018-06-14T10:14:09.232Z,6.13
2018-06-14T10:16:37.640Z,6.67
2018-06-14T10:19:06.147Z,5.40
2018-06-14T10:21:34.647Z,5.50
2018-06-14T10:24:03.007Z,4.87
2018-06-14T10:26:31.362Z,4.83
2018-06-14T10:28:59.733Z,4.77
2018-06-14T10:31:28.054Z,4.80
2018-06-14T10:33:56.369Z,5.47
2018-06-14T10:36:24.642Z,4.77
2018-06-14T10:38:52.949Z,5.57
2018-06-14T10:41:21.254Z,5.53
2018-06-14T10:43:49.544Z,4.53
2018-06-14T10:46:17.820Z,5.10
2018-06-14T10:48:46.115Z,5.10
2018-06-14T10:51:14.194Z,5.27
2018-06-14T10:53:42.537Z,5.43
2018-06-14T10:56:10.842Z,5.43
2018-06-14T10:58:39.207Z,4.90
2018-06-14T11:01:07.211Z,4.93
2018-06-14T11:03:35.575Z,5.53
2018-06-14T11:06:03.989Z,5.13
2018-06-14T11:08:32.263Z,5.30
2018-06-14T11:11:00.542Z,5.57
2018-06-14T11:13:28.823Z,5.50
2018-06-14T11:15:57.102Z,5.43
2018-06-14T11:18:25.446Z,6.07
2018-06-14T11:20:54.125Z,5.20
2018-06-14T11:23:22.475Z,5.67
2018-06-14T11:25:50.825Z,5.17
2018-06-14T11:28:19.183Z,5.30
2018-06-14T11:30:47.544Z,5.47
2018-06-14T11:33:15.869Z,6.50
2018-06-14T11:35:44.628Z,4.93
2018-06-14T11:38:12.984Z,5.27
2018-06-14T11:40:41.285Z,4.93
2018-06-14T11:43:09.639Z,5.13
2018-06-14T11:45:37.949Z,4.53
2018-06-14T11:48:06.295Z,4.50
2018-06-14T11:50:34.591Z,4.33
2018-06-14T11:53:02.862Z,5.03
2018-06-14T11:55:31.183Z,4.83
2018-06-14T11:57:59.515Z,5.20
2018-06-14T12:00:27.872Z,4.60
2018-06-14T12:02:56.161Z,4.37
2018-06-14T12:05:24.566Z,5.00
2018-06-14T12:07:53.049Z,4.57
2018-06-14T12:10:21.734Z,4.43
2018-06-14T12:12:50.031Z,4.17
2018-06-14T12:15:18.332Z,4.67
2018-06-14T12:17:46.637Z,4.80
2018-06-14T12:20:14.934Z,4.20
2018-06-14T12:22:43.234Z,4.37
2018-06-14T12:25:11.645Z,4.10
2018-06-14T12:27:40.188Z,4.70
2018-06-14T12:30:08.519Z,4.40
2018-06-14T12:32:36.803Z,4.33
2018-06-14T12:35:05.111Z,4.00
2018-06-14T12:37:33.409Z,4.07
2018-06-14T12:40:01.785Z,4.23
2018-06-14T12:42:31.006Z,4.83
2018-06-14T12:45:00.137Z,4.13
2018-06-14T12:47:28.419Z,4.53
2018-06-14T12:49:56.774Z,4.40
2018-06-14T12:52:25.150Z,4.47
2018-06-14T12:54:53.536Z,4.30
2018-06-14T12:57:21.877Z,4.90
2018-06-14T12:59:50.169Z,4.90
2018-06-14T13:02:18.498Z,4.03
2018-06-14T13:04:46.814Z,4.40
2018-06-14T13:07:15.157Z,4.30
2018-06-14T13:09:43.486Z,4.93
2018-06-14T13:12:11.805Z,4.27
2018-06-14T13:14:40.142Z,4.50
2018-06-14T13:17:08.444Z,4.60
2018-06-14T13:19:36.770Z,4.57
2018-06-14T13:22:05.124Z,3.87
2018-06-14T13:24:40.204Z,4.23
2018-06-14T13:29:46.788Z,4.00
2018-06-14T13:32:15.076Z,4.03
2018-06-14T13:34:43.399Z,4.33
2018-06-14T13:37:11.699Z,4.00
2018-06-14T13:39:40.000Z,4.53
2018-06-14T13:42:08.284Z,4.10
2018-06-14T13:44:36.572Z,3.90
2018-06-14T13:47:04.888Z,4.47
2018-06-14T13:49:33.172Z,4.30
2018-06-14T13:52:01.483Z,4.47
2018-06-14T13:54:29.758Z,4.30
2018-06-14T13:56:58.059Z,4.57
2018-06-14T13:59:26.331Z,4.13
2018-06-14T14:01:54.646Z,4.00
2018-06-14T14:04:23.023Z,4.00
2018-06-14T14:06:55.601Z,4.30
2018-06-14T14:09:23.898Z,3.63
2018-06-14T14:11:52.216Z,3.90
2018-06-14T14:14:20.529Z,4.10
2018-06-14T14:16:48.846Z,3.57
2018-06-14T14:19:17.264Z,3.80
2018-06-14T14:21:45.572Z,3.97
2018-06-14T14:24:13.917Z,3.83
2018-06-14T14:26:42.248Z,3.87
2018-06-14T14:29:10.706Z,3.70
2018-06-14T14:31:39.052Z,3.77
2018-06-14T14:34:07.356Z,4.00
2018-06-14T14:36:35.808Z,4.10
2018-06-14T14:39:06.207Z,3.83
2018-06-14T14:41:34.774Z,4.10
2018-06-14T14:44:03.093Z,3.77
2018-06-14T14:46:31.406Z,3.60
2018-06-14T14:48:59.724Z,3.70
2018-06-14T14:51:28.055Z,3.53
2018-06-14T14:53:56.396Z,3.47
2018-06-14T14:56:24.734Z,3.73
2018-06-14T14:58:53.176Z,3.60
2018-06-14T15:01:21.490Z,3.70
2018-06-14T15:03:49.759Z,3.53
2018-06-14T15:06:18.088Z,3.67
2018-06-14T15:08:46.402Z,3.57
2018-06-14T15:11:14.896Z,3.90
2018-06-14T15:13:48.239Z,3.60
2018-06-14T15:16:16.544Z,3.77
2018-06-14T15:18:44.843Z,3.80
2018-06-14T15:21:13.168Z,3.90
2018-06-14T15:23:41.444Z,3.87
2018-06-14T15:26:09.841Z,3.77
2018-06-14T15:28:38.365Z,3.57
2018-06-14T15:31:06.745Z,3.87
2018-06-14T15:33:35.065Z,4.00
2018-06-14T15:36:03.398Z,3.00
2018-06-14T15:38:31.688Z,3.77
2018-06-14T15:40:59.979Z,3.67
2018-06-14T15:43:28.312Z,3.60
2018-06-14T15:45:56.669Z,3.60
2018-06-14T15:48:24.979Z,3.60
2018-06-14T15:50:53.403Z,3.57
2018-06-14T15:53:21.701Z,4.17
2018-06-14T15:56:08.759Z,3.90
2018-06-14T15:58:37.107Z,3.80
2018-06-14T16:01:05.838Z,3.70
2018-06-14T16:03:34.139Z,4.07
2018-06-14T16:06:02.680Z,3.63
2018-06-14T16:08:31.301Z,3.53
2018-06-14T16:10:59.666Z,4.27
2018-06-14T16:13:27.985Z,3.97
2018-06-14T16:15:56.307Z,3.70
2018-06-14T16:18:24.473Z,3.60
2018-06-14T16:20:52.784Z,4.00
2018-06-14T16:23:21.104Z,3.83
2018-06-14T16:25:49.479Z,4.37
2018-06-14T16:28:17.780Z,3.80
2018-06-14T16:30:46.085Z,3.90
2018-06-14T16:33:14.462Z,4.07
2018-06-14T16:35:42.741Z,4.10
2018-06-14T16:38:11.069Z,3.97
2018-06-14T16:40:39.694Z,3.83
2018-06-14T16:43:08.005Z,4.10
2018-06-14T16:45:36.301Z,4.20
2018-06-14T16:48:04.624Z,4.10
2018-06-14T16:50:32.908Z,4.10
2018-06-14T16:53:01.248Z,4.50
2018-06-14T16:55:29.525Z,3.70
2018-06-14T16:57:58.014Z,4.13
2018-06-14T17:00:26.290Z,4.00
2018-06-14T17:02:54.612Z,4.40
2018-06-14T17:05:22.892Z,4.07
2018-06-14T17:07:51.218Z,4.47
2018-06-14T17:10:19.519Z,4.00
2018-06-14T17:12:47.832Z,4.93
2018-06-14T17:15:16.119Z,5.43
2018-06-14T17:17:44.410Z,4.57
2018-06-14T17:20:12.803Z,4.30
2018-06-14T17:22:41.089Z,4.30
2018-06-14T17:25:09.427Z,4.33
2018-06-14T17:27:37.848Z,5.10
2018-06-14T17:30:06.951Z,3.90
2018-06-14T17:32:35.266Z,4.03
2018-06-14T17:35:03.723Z,4.17
2018-06-14T17:37:32.082Z,3.80
2018-06-14T17:40:00.418Z,5.00
2018-06-14T17:42:28.771Z,4.80
2018-06-14T17:44:57.097Z,4.73
2018-06-14T17:47:25.409Z,4.00
2018-06-14T17:49:53.802Z,4.10
2018-06-14T17:52:22.136Z,3.93
2018-06-14T17:54:50.432Z,3.67
2018-06-14T17:57:18.798Z,4.17
2018-06-14T17:59:47.221Z,3.60
2018-06-14T18:02:15.560Z,5.00
2018-06-14T18:04:43.898Z,4.40
2018-06-14T18:07:12.220Z,3.97
2018-06-14T18:09:40.546Z,4.00
2018-06-14T18:12:08.864Z,3.90
2018-06-14T18:14:37.160Z,4.23
2018-06-14T18:17:05.532Z,3.73
2018-06-14T18:19:33.900Z,4.77
2018-06-14T18:22:02.221Z,4.73
2018-06-14T18:24:30.573Z,4.20
2018-06-14T18:26:58.924Z,5.20
2018-06-14T18:29:27.311Z,3.80
2018-06-14T18:31:55.592Z,3.63
2018-06-14T18:34:25.054Z,3.53
2018-06-14T18:36:53.100Z,3.70
2018-06-14T18:39:21.471Z,3.50
2018-06-14T18:41:49.914Z,3.37
2018-06-14T18:44:18.246Z,3.23
2018-06-14T18:46:46.551Z,3.20
2018-06-14T18:49:14.861Z,3.20
2018-06-14T18:51:43.143Z,3.10
2018-06-14T18:54:11.451Z,3.00
2018-06-14T18:56:39.779Z,3.60
2018-06-14T18:59:08.102Z,3.43
2018-06-14T19:01:36.391Z,3.30
2018-06-14T19:04:04.741Z,3.47
2018-06-14T19:06:33.037Z,3.60
2018-06-14T19:09:01.453Z,4.50
2018-06-14T19:11:29.932Z,3.67
2018-06-14T19:13:58.261Z,4.20
2018-06-14T19:16:26.588Z,3.80
2018-06-14T19:18:54.922Z,4.33
2018-06-14T19:21:23.229Z,3.60
2018-06-14T19:23:51.621Z,3.27
2018-06-14T19:26:20.063Z,3.37
2018-06-14T19:28:48.307Z,3.30
2018-06-14T19:31:16.608Z,3.40
2018-06-14T19:33:44.985Z,3.60
2018-06-14T19:36:13.317Z,3.93
2018-06-14T19:38:42.635Z,3.77
2018-06-14T19:41:11.063Z,3.27
2018-06-14T19:43:39.127Z,4.00
2018-06-14T19:46:07.667Z,3.90
2018-06-14T19:48:36.009Z,3.40
2018-06-14T19:51:04.410Z,3.50
2018-06-14T19:53:32.746Z,6.70
2018-06-14T19:56:01.032Z,3.93
2018-06-14T19:58:29.403Z,3.40
2018-06-14T20:00:57.424Z,3.43
2018-06-14T20:03:25.777Z,4.07
2018-06-14T20:05:54.090Z,4.87
2018-06-14T20:08:22.432Z,3.33
2018-06-14T20:10:50.825Z,2.90
2018-06-14T20:13:19.288Z,3.17
2018-06-14T20:15:47.632Z,2.93
2018-06-14T20:18:16.154Z,3.07
2018-06-14T20:20:44.826Z,3.20
2018-06-14T20:23:13.064Z,4.10
2018-06-14T20:25:41.497Z,3.33
2018-06-14T20:28:09.940Z,3.43
2018-06-14T20:30:38.755Z,3.30
2018-06-14T20:33:07.155Z,3.50
2018-06-14T20:35:35.494Z,3.33
2018-06-14T20:38:03.848Z,3.40
2018-06-14T20:40:32.206Z,3.70
2018-06-14T20:43:00.501Z,3.50
2018-06-14T20:45:29.208Z,3.33
2018-06-14T20:47:57.613Z,3.83
2018-06-14T20:50:26.072Z,3.53
2018-06-14T20:52:54.637Z,3.80
2018-06-14T20:55:23.443Z,3.63
2018-06-14T20:57:52.072Z,4.20
2018-06-14T21:00:20.741Z,4.00
2018-06-14T21:02:49.193Z,4.23
2018-06-14T21:05:17.585Z,4.13
2018-06-14T21:07:46.476Z,4.20
2018-06-14T21:10:14.826Z,3.93
2018-06-14T21:12:43.236Z,6.17
2018-06-14T21:15:11.646Z,5.97
2018-06-14T21:17:39.932Z,4.33
2018-06-14T21:20:08.320Z,4.10
2018-06-14T21:22:36.707Z,4.67
2018-06-14T21:25:05.333Z,4.50
2018-06-14T21:27:33.631Z,4.40
2018-06-14T21:30:01.989Z,4.30
2018-06-14T21:32:30.363Z,4.33
2018-06-14T21:34:58.708Z,4.40
2018-06-14T21:37:27.234Z,4.10
2018-06-14T21:39:55.625Z,4.67
2018-06-14T21:42:23.983Z,4.50
2018-06-14T21:44:52.642Z,4.60
2018-06-14T21:47:20.938Z,4.40
2018-06-14T21:49:49.365Z,4.80
2018-06-14T21:52:17.704Z,4.57
2018-06-14T21:54:46.025Z,4.30
2018-06-14T21:57:14.360Z,4.40
2018-06-14T21:59:42.703Z,4.50
2018-06-14T22:02:11.078Z,4.57
2018-06-14T22:04:39.404Z,4.27
2018-06-14T22:07:07.749Z,4.50
2018-06-14T22:09:36.056Z,4.50
2018-06-14T22:12:04.333Z,4.63
2018-06-14T22:14:32.686Z,4.37
2018-06-14T22:17:01.013Z,4.10
2018-06-14T22:19:29.351Z,3.87
2018-06-14T22:21:57.878Z,4.27
2018-06-14T22:24:26.201Z,4.50
2018-06-14T22:26:54.479Z,4.47
2018-06-14T22:29:22.768Z,4.77
2018-06-14T22:31:51.067Z,4.57
2018-06-14T22:34:30.756Z,4.30
2018-06-14T22:36:59.108Z,4.33
2018-06-14T22:39:27.478Z,4.53
2018-06-14T22:41:55.793Z,4.03
2018-06-14T22:44:24.594Z,4.47
2018-06-14T22:46:52.812Z,4.27
2018-06-14T22:49:21.171Z,4.13
2018-06-14T22:53:01.135Z,4.37
2018-06-14T22:55:29.577Z,4.50
2018-06-14T22:57:57.905Z,4.23
2018-06-14T23:01:34.428Z,4.40
2018-06-14T23:04:03.323Z,4.83
2018-06-14T23:06:31.705Z,4.60
2018-06-14T23:09:01.041Z,4.97
2018-06-14T23:11:29.490Z,4.10
2018-06-14T23:13:57.853Z,4.33
2018-06-14T23:16:26.176Z,4.20
2018-06-14T23:18:54.569Z,4.00
2018-06-14T23:21:22.951Z,4.40
2018-06-14T23:23:51.316Z,4.37
2018-06-14T23:26:19.891Z,4.37
2018-06-14T23:28:48.296Z,4.03
2018-06-14T23:31:16.392Z,4.33
2018-06-14T23:33:44.766Z,4.33
2018-06-14T23:36:13.146Z,4.33
2018-06-14T23:38:41.452Z,4.13
2018-06-14T23:41:09.814Z,4.10
2018-06-14T23:43:38.134Z,4.50
2018-06-14T23:46:06.527Z,4.40
2018-06-14T23:48:34.856Z,4.23
2018-06-14T23:51:03.184Z,4.27
2018-06-14T23:53:31.220Z,4.07
2018-06-14T23:55:59.519Z,4.23
2018-06-14T23:58:27.855Z,4.60
